Time;durP1;ratioP1;P1;durP2;ratioP2;P2;SDS_P1;SDS_P2;PMS_P1;PMS_P2;Temp;Humidity;BMP_temperature;BMP_pressure;BME280_temperature;BME280_humidity;BME280_pressure;Samples;Min_cycle;Max_cycle;Signal;HPM_P1;HPM_P2
2021/10/15 00:01:05;;;;;;;22.98;4.28;;;;;;;13.95;84.97;101606.69;5053100;28;20029;-51
2021/10/15 00:03:30;;;;;;;19.17;4.75;;;;;;;13.94;84.75;101605.00;5054365;28;20025;-50
2021/10/15 00:05:56;;;;;;;19.10;4.60;;;;;;;13.93;84.56;101598.75;5054271;28;20052;-46
2021/10/15 00:08:21;;;;;;;18.95;4.00;;;;;;;13.94;84.70;101586.91;5054421;28;20021;-47
2021/10/15 00:10:46;;;;;;;18.75;4.07;;;;;;;13.96;84.25;101575.91;5054103;28;20384;-47
2021/10/15 00:13:12;;;;;;;14.45;4.40;;;;;;;13.99;84.42;101586.34;5054151;28;20024;-46
2021/10/15 00:15:37;;;;;;;16.35;4.60;;;;;;;13.97;84.42;101586.53;5054137;28;20043;-47
2021/10/15 00:18:02;;;;;;;24.33;4.25;;;;;;;13.98;84.44;101581.94;5053891;28;20053;-51
2021/10/15 00:20:28;;;;;;;24.83;4.22;;;;;;;13.99;84.27;101589.06;5053947;28;20028;-51
2021/10/15 00:22:53;;;;;;;28.90;4.70;;;;;;;13.98;84.29;101576.53;5052832;28;20080;-49
2021/10/15 00:25:18;;;;;;;23.55;4.53;;;;;;;13.98;84.37;101571.13;5052586;28;20025;-47
2021/10/15 00:27:44;;;;;;;16.02;3.85;;;;;;;14.01;84.07;101578.91;5053860;28;20094;-49
2021/10/15 00:30:09;;;;;;;17.63;4.45;;;;;;;14.00;84.35;101563.66;5053900;28;20021;-48
2021/10/15 00:32:35;;;;;;;22.63;4.40;;;;;;;14.00;84.19;101567.19;5052301;28;20417;-50
2021/10/15 00:35:00;;;;;;;22.42;3.78;;;;;;;14.02;84.41;101567.88;5053794;28;20024;-48
2021/10/15 00:37:25;;;;;;;22.30;4.53;;;;;;;14.02;84.18;101561.63;5068075;28;20029;-47
2021/10/15 00:39:51;;;;;;;14.30;3.88;;;;;;;14.01;84.35;101557.25;5056398;28;20056;-47
2021/10/15 00:42:16;;;;;;;27.55;4.43;;;;;;;14.02;84.59;101546.22;5053591;28;20467;-48
2021/10/15 00:44:42;;;;;;;21.23;4.20;;;;;;;14.03;84.75;101552.47;5053718;28;20454;-48
2021/10/15 00:47:07;;;;;;;25.30;5.20;;;;;;;14.02;84.50;101548.09;5053505;28;20105;-45
2021/10/15 00:49:32;;;;;;;24.35;4.25;;;;;;;14.04;84.47;101549.56;5053613;28;20040;-46
2021/10/15 00:51:59;;;;;;;27.65;3.88;;;;;;;14.03;84.36;101549.75;5053508;28;20035;-47
2021/10/15 00:54:24;;;;;;;24.70;4.57;;;;;;;14.02;83.39;101550.78;5055084;28;20070;-46
2021/10/15 00:56:50;;;;;;;12.90;3.88;;;;;;;14.04;83.36;101546.88;5073307;28;20402;-47
2021/10/15 00:59:15;;;;;;;17.95;3.65;;;;;;;14.08;80.84;101541.91;5073057;28;20056;-46
2021/10/15 01:01:41;;;;;;;11.65;3.10;;;;;;;14.16;80.04;101539.09;5073272;28;20073;-47
2021/10/15 01:04:06;;;;;;;12.73;2.92;;;;;;;14.21;78.81;101541.25;5072444;28;20055;-47
2021/10/15 01:06:32;;;;;;;14.40;3.63;;;;;;;14.25;78.28;101519.03;5073041;28;20029;-47
2021/10/15 01:08:59;;;;;;;10.93;2.88;;;;;;;14.28;78.04;101518.66;5073130;28;20119;-46
2021/10/15 01:11:24;;;;;;;14.02;3.28;;;;;;;14.32;77.83;101521.81;5071570;28;20031;-48
2021/10/15 01:13:50;;;;;;;11.10;3.15;;;;;;;14.37;77.37;101521.25;5072919;28;20021;-47
2021/10/15 01:16:15;;;;;;;15.05;3.38;;;;;;;14.37;77.18;101513.13;5073034;28;20387;-46
2021/10/15 01:18:43;;;;;;;9.38;2.80;;;;;;;14.40;77.22;101510.88;5072851;28;20028;-47
2021/10/15 01:21:10;;;;;;;11.88;3.60;;;;;;;14.40;77.27;101512.72;5072947;28;20078;-47
2021/10/15 01:23:36;;;;;;;13.52;2.95;;;;;;;14.41;77.29;101506.31;5072883;28;20028;-46
2021/10/15 01:26:02;;;;;;;17.45;3.80;;;;;;;14.44;77.18;101508.63;5072867;28;20468;-47
2021/10/15 01:28:29;;;;;;;19.00;3.47;;;;;;;14.44;76.99;101506.75;5072906;28;20404;-49
2021/10/15 01:30:54;;;;;;;16.50;4.15;;;;;;;14.46;77.11;101503.84;5072725;28;20391;-46
2021/10/15 01:33:20;;;;;;;16.15;3.60;;;;;;;14.47;77.45;101508.22;5072655;28;20034;-47
2021/10/15 01:35:46;;;;;;;19.65;3.63;;;;;;;14.45;77.78;101503.00;5061971;28;20032;-49
2021/10/15 01:38:12;;;;;;;13.07;3.10;;;;;;;14.46;77.69;101493.84;5052539;28;20476;-47
2021/10/15 01:40:37;;;;;;;16.80;4.10;;;;;;;14.47;77.59;101502.81;5052760;28;20033;-46
2021/10/15 01:43:03;;;;;;;22.83;5.25;;;;;;;14.47;77.93;101494.69;5052568;28;20357;-48
2021/10/15 01:45:30;;;;;;;12.50;2.97;;;;;;;14.46;77.80;101490.31;5052517;28;20029;-47
2021/10/15 01:47:56;;;;;;;16.10;3.67;;;;;;;14.46;77.91;101482.19;5051380;28;20021;-47
2021/10/15 01:50:22;;;;;;;19.52;3.40;;;;;;;14.45;77.70;101477.78;5052517;28;20089;-46
2021/10/15 01:52:48;;;;;;;14.02;3.50;;;;;;;14.44;77.88;101481.53;5051042;28;20418;-47
2021/10/15 01:55:14;;;;;;;18.00;3.58;;;;;;;14.45;78.02;101485.91;5052448;28;20028;-47
2021/10/15 01:57:40;;;;;;;13.43;3.80;;;;;;;14.47;78.35;101475.72;5052324;28;20029;-50
2021/10/15 02:00:07;;;;;;;22.92;4.05;;;;;;;14.48;78.15;101475.56;5052579;28;20498;-49
2021/10/15 02:02:32;;;;;;;15.95;3.30;;;;;;;14.48;77.61;101466.56;5052387;28;20025;-46
2021/10/15 02:04:58;;;;;;;18.15;3.72;;;;;;;14.48;77.55;101463.84;5052370;28;20491;-48
2021/10/15 02:07:23;;;;;;;16.02;3.60;;;;;;;14.51;77.57;101460.78;5078097;28;20025;-48
2021/10/15 02:09:49;;;;;;;20.02;3.70;;;;;;;14.50;76.90;101465.34;5032350;28;20049;-49
2021/10/15 02:12:14;;;;;;;16.10;4.13;;;;;;;14.51;77.41;101458.06;5032167;28;20035;-47
2021/10/15 02:14:39;;;;;;;13.23;3.13;;;;;;;14.47;77.34;101456.78;5033461;28;20034;-47
2021/10/15 02:17:05;;;;;;;20.40;3.42;;;;;;;14.47;77.39;101456.78;5036400;28;20548;-46
2021/10/15 02:19:30;;;;;;;17.95;3.42;;;;;;;14.49;77.65;101449.31;5046518;28;20028;-46
2021/10/15 02:21:56;;;;;;;15.77;3.30;;;;;;;14.48;77.04;101442.19;5064853;28;20545;-47
2021/10/15 02:24:21;;;;;;;19.98;5.05;;;;;;;14.48;76.37;101448.47;5056200;28;20029;-47
2021/10/15 02:26:46;;;;;;;12.25;3.38;;;;;;;14.47;76.21;101445.94;5056799;28;20025;-48
2021/10/15 02:29:12;;;;;;;16.60;3.30;;;;;;;14.50;76.10;101442.84;5066442;28;20075;-49
2021/10/15 02:31:37;;;;;;;13.63;3.47;;;;;;;14.49;76.30;101444.72;5056236;28;20481;-50
2021/10/15 02:34:02;;;;;;;15.45;3.30;;;;;;;14.49;76.72;101460.13;5056352;28;20386;-47
2021/10/15 02:36:28;;;;;;;19.00;4.03;;;;;;;14.49;76.38;101446.59;5055877;28;20025;-47
2021/10/15 02:38:53;;;;;;;13.55;3.35;;;;;;;14.45;76.60;101440.69;5056083;28;20028;-48
2021/10/15 02:41:19;;;;;;;17.88;3.50;;;;;;;14.44;76.71;101435.50;5056010;28;20380;-48
2021/10/15 02:43:44;;;;;;;18.55;3.97;;;;;;;14.42;76.78;101426.72;5055854;28;20035;-47
2021/10/15 02:46:14;;;;;;;11.68;3.05;;;;;;;14.39;76.39;101411.69;5055983;28;20048;-48
2021/10/15 02:48:39;;;;;;;14.35;3.58;;;;;;;14.38;76.71;101422.75;5056742;28;20039;-48
2021/10/15 02:51:04;;;;;;;12.02;3.40;;;;;;;14.41;76.35;101425.06;5056495;28;20029;-49
2021/10/15 02:53:30;;;;;;;20.40;4.00;;;;;;;14.44;76.29;101428.22;5055347;28;20067;-47
2021/10/15 02:55:55;;;;;;;13.32;3.65;;;;;;;14.44;76.62;101427.38;5056356;28;20043;-49
2021/10/15 02:58:20;;;;;;;14.55;3.35;;;;;;;14.40;76.59;101423.34;5055672;28;20492;-50
2021/10/15 03:00:46;;;;;;;15.25;3.42;;;;;;;14.40;76.24;101423.34;5055982;28;20175;-49
2021/10/15 03:03:11;;;;;;;13.70;3.95;;;;;;;14.38;76.33;101420.88;5055738;28;20021;-51
2021/10/15 03:05:36;;;;;;;24.05;3.95;;;;;;;14.37;76.40;101421.03;5055695;28;20116;-47
2021/10/15 03:08:02;;;;;;;11.82;3.30;;;;;;;14.39;76.60;101424.41;5055482;28;20025;-49
2021/10/15 03:10:27;;;;;;;13.38;3.20;;;;;;;14.38;75.36;101415.44;5055377;28;20029;-47
2021/10/15 03:12:52;;;;;;;15.85;3.50;;;;;;;14.41;74.90;101422.34;5053115;28;20048;-47
2021/10/15 03:15:18;;;;;;;14.35;3.65;;;;;;;14.45;74.98;101410.91;5034268;28;20453;-48
2021/10/15 03:17:43;;;;;;;11.10;2.83;;;;;;;14.42;73.97;101410.47;5063669;28;20466;-48
2021/10/15 03:20:09;;;;;;;11.68;3.20;;;;;;;14.39;73.48;101405.44;5053862;28;20102;-47
2021/10/15 03:22:34;;;;;;;16.13;3.38;;;;;;;14.41;73.16;101406.94;5055105;28;20033;-48
2021/10/15 03:25:00;;;;;;;11.90;2.85;;;;;;;14.38;73.67;101409.19;5055150;28;20112;-48
2021/10/15 03:27:25;;;;;;;20.77;3.83;;;;;;;14.35;74.04;101401.44;5054362;28;20082;-50
2021/10/15 03:29:50;;;;;;;10.15;3.15;;;;;;;14.37;74.36;101410.22;5054958;28;20059;-48
2021/10/15 03:32:16;;;;;;;17.67;2.92;;;;;;;14.37;74.63;101410.22;5053642;28;20060;-48
2021/10/15 03:34:41;;;;;;;15.32;4.13;;;;;;;14.34;75.19;101402.47;5054833;28;20048;-49
2021/10/15 03:37:06;;;;;;;17.05;3.63;;;;;;;14.37;75.53;101407.50;5053295;28;20091;-48
2021/10/15 03:39:32;;;;;;;16.73;3.38;;;;;;;14.38;75.57;101411.91;5053542;28;20071;-49
2021/10/15 03:41:57;;;;;;;15.45;3.53;;;;;;;14.39;75.47;101409.00;5055019;28;20061;-49
2021/10/15 03:44:23;;;;;;;16.45;3.70;;;;;;;14.39;75.33;101413.56;5053446;28;20468;-48
2021/10/15 03:46:48;;;;;;;13.07;3.17;;;;;;;14.40;75.05;101407.97;5054611;28;20032;-50
2021/10/15 03:49:13;;;;;;;17.83;3.75;;;;;;;14.41;74.97;101409.63;5054650;28;20111;-49
2021/10/15 03:51:39;;;;;;;20.90;3.53;;;;;;;14.36;75.26;101414.78;5053350;28;20057;-48
2021/10/15 03:54:04;;;;;;;15.18;3.88;;;;;;;14.34;75.66;101416.84;5054874;28;20025;-48
2021/10/15 03:56:30;;;;;;;16.75;2.97;;;;;;;14.35;75.43;101409.56;5054646;28;20028;-49
2021/10/15 03:58:55;;;;;;;16.40;3.20;;;;;;;14.34;75.08;101418.72;5054325;28;20045;-48
2021/10/15 04:01:20;;;;;;;14.90;3.55;;;;;;;14.35;74.90;101414.97;5054496;28;20067;-47
2021/10/15 04:03:46;;;;;;;15.88;4.05;;;;;;;14.31;75.54;101402.88;5054424;28;20021;-47
2021/10/15 04:06:11;;;;;;;14.82;3.45;;;;;;;14.34;75.14;101406.03;5054376;28;20021;-49
2021/10/15 04:08:36;;;;;;;15.88;3.40;;;;;;;14.36;75.31;101411.25;5053762;28;20041;-51
2021/10/15 04:11:02;;;;;;;15.40;3.60;;;;;;;14.34;75.53;101410.59;5046925;28;20116;-48
2021/10/15 04:13:27;;;;;;;12.50;3.03;;;;;;;14.37;75.35;101402.09;5050832;28;20029;-50
2021/10/15 04:15:52;;;;;;;15.68;3.22;;;;;;;14.36;75.53;101400.44;5052835;28;20033;-48
2021/10/15 04:18:18;;;;;;;24.02;3.47;;;;;;;14.31;75.45;101403.69;5052549;28;20029;-48
2021/10/15 04:20:43;;;;;;;17.48;3.63;;;;;;;14.31;75.54;101398.28;5052604;28;20572;-48
2021/10/15 04:23:08;;;;;;;15.30;3.17;;;;;;;14.35;75.20;101393.31;5052972;28;20025;-49
2021/10/15 04:25:34;;;;;;;15.60;3.97;;;;;;;14.37;75.35;101383.97;5052777;28;20029;-49
2021/10/15 04:27:59;;;;;;;16.50;3.25;;;;;;;14.32;75.56;101404.53;5052823;28;20028;-47
2021/10/15 04:30:24;;;;;;;12.18;3.28;;;;;;;14.28;75.71;101398.69;5052548;28;20501;-46
2021/10/15 04:32:50;;;;;;;19.15;3.85;;;;;;;14.27;75.63;101389.72;5052772;28;20490;-49
2021/10/15 04:35:15;;;;;;;14.93;3.65;;;;;;;14.24;76.14;101392.81;5051544;28;20027;-49
2021/10/15 04:37:40;;;;;;;11.63;3.33;;;;;;;14.24;76.16;101397.38;5051414;28;20052;-50
2021/10/15 04:40:06;;;;;;;19.98;3.53;;;;;;;14.27;75.91;101397.84;5050484;28;20029;-47
2021/10/15 04:42:32;;;;;;;16.55;3.20;;;;;;;14.27;76.39;101392.44;5050833;28;20029;-48
2021/10/15 04:44:57;;;;;;;16.60;3.47;;;;;;;14.24;75.81;101403.66;5050907;28;20486;-49
2021/10/15 04:47:23;;;;;;;11.95;2.88;;;;;;;14.21;76.17;101392.34;5052212;28;20501;-45
2021/10/15 04:49:49;;;;;;;15.20;3.72;;;;;;;14.19;76.72;101400.69;5052455;28;20021;-46
2021/10/15 04:52:14;;;;;;;17.38;3.50;;;;;;;14.25;76.39;101397.19;5052379;28;20043;-47
2021/10/15 04:54:39;;;;;;;16.33;4.05;;;;;;;14.25;76.18;101396.38;5065251;28;20040;-50
2021/10/15 04:57:04;;;;;;;16.45;3.42;;;;;;;14.26;76.44;101398.03;5045171;28;20035;-46
2021/10/15 04:59:30;;;;;;;19.63;3.65;;;;;;;14.20;76.15;101399.63;5051234;28;20403;-47
2021/10/15 05:01:55;;;;;;;14.43;3.17;;;;;;;14.22;76.31;101403.00;5050899;28;20457;-49
2021/10/15 05:04:20;;;;;;;17.92;3.70;;;;;;;14.26;75.82;101393.44;5052462;28;20566;-49
2021/10/15 05:06:46;;;;;;;18.30;3.88;;;;;;;14.29;74.90;101386.81;5052320;28;20567;-47
2021/10/15 05:11:40;;;;;;;15.65;3.58;;;;;;;14.23;75.54;101401.97;5053279;28;20029;-48
2021/10/15 05:14:05;;;;;;;21.92;4.35;;;;;;;14.24;75.74;101387.41;5051646;28;20048;-50
2021/10/15 05:16:30;;;;;;;27.33;4.07;;;;;;;14.24;76.30;101387.41;5052904;28;20427;-47
2021/10/15 05:18:57;;;;;;;14.35;3.30;;;;;;;14.25;76.46;101394.47;5052564;28;20037;-48
2021/10/15 05:21:22;;;;;;;17.83;3.40;;;;;;;14.27;77.24;101392.44;5061965;28;20059;-47
2021/10/15 05:23:47;;;;;;;15.05;2.63;;;;;;;14.19;80.58;101406.09;5054444;28;20446;-48
2021/10/15 05:26:12;;;;;;;14.15;2.90;;;;;;;13.96;81.77;101410.81;5052752;28;20115;-50
2021/10/15 05:28:38;;;;;;;8.20;2.67;;;;;;;13.77;83.20;101412.25;5052420;28;20025;-47
2021/10/15 05:31:03;;;;;;;11.05;3.08;;;;;;;13.56;84.75;101410.31;5052689;28;20127;-48
2021/10/15 05:33:28;;;;;;;12.95;4.05;;;;;;;13.42;85.38;101408.47;5052456;28;20112;-47
2021/10/15 05:35:55;;;;;;;18.67;4.30;;;;;;;13.24;86.54;101406.91;5052417;28;20087;-47
2021/10/15 05:38:20;;;;;;;13.75;3.70;;;;;;;13.20;87.50;101402.94;5052440;28;20033;-48
2021/10/15 05:40:46;;;;;;;18.08;4.55;;;;;;;13.09;87.58;101408.78;5052310;28;20029;-48
2021/10/15 05:43:11;;;;;;;14.52;4.03;;;;;;;13.08;87.89;101402.53;5052101;28;20021;-49
2021/10/15 05:45:36;;;;;;;13.63;3.92;;;;;;;13.09;87.95;101400.69;5052433;28;20439;-49
2021/10/15 05:48:01;;;;;;;18.70;5.15;;;;;;;13.10;87.90;101407.75;5052321;28;20361;-48
2021/10/15 05:50:29;;;;;;;17.27;4.10;;;;;;;13.12;87.95;101414.66;5050792;28;20533;-49
2021/10/15 05:52:54;;;;;;;19.80;4.80;;;;;;;13.13;88.45;101410.91;5050900;28;20053;-49
2021/10/15 05:55:28;;;;;;;16.83;3.90;;;;;;;13.12;87.91;101414.66;5052028;28;20056;-48
2021/10/15 06:00:24;;;;;;;18.65;4.63;;;;;;;13.14;88.82;101430.69;5052073;28;20132;-51
2021/10/15 06:02:49;;;;;;;27.05;4.78;;;;;;;13.11;89.12;101453.53;5052209;28;21092;-48
2021/10/15 06:15:54;;;;;;;11.52;1.88;;;;;;;12.45;89.20;101466.72;5051883;28;20110;-55
2021/10/15 06:18:21;;;;;;;10.05;1.35;;;;;;;12.35;89.64;101470.66;5047252;28;20067;-56
2021/10/15 06:20:48;;;;;;;11.15;1.45;;;;;;;12.23;89.79;101465.66;5041496;28;20025;-56
2021/10/15 06:23:14;;;;;;;10.05;1.52;;;;;;;12.22;90.71;101476.66;5031892;28;20029;-58
2021/10/15 06:25:39;;;;;;;12.05;1.60;;;;;;;12.20;90.32;101484.09;5048622;28;20107;-58
2021/10/15 06:28:05;;;;;;;18.73;1.38;;;;;;;12.18;90.35;101492.34;5051539;28;20040;-56
2021/10/15 06:30:31;;;;;;;13.23;1.38;;;;;;;12.13;89.94;101493.91;5050406;28;20376;-54
2021/10/15 06:32:57;;;;;;;10.57;2.08;;;;;;;12.10;89.61;101502.34;5051960;28;20032;-52
2021/10/15 06:35:23;;;;;;;9.85;1.70;;;;;;;12.04;89.51;101506.59;5067061;28;20079;-55
2021/10/15 06:37:48;;;;;;;15.45;1.92;;;;;;;11.93;89.32;101517.75;5051709;28;20420;-52
2021/10/15 06:40:14;;;;;;;13.50;1.70;;;;;;;11.97;89.94;101527.19;5051204;28;20013;-55
2021/10/15 06:42:40;;;;;;;12.07;1.50;;;;;;;11.88;89.37;101531.78;5055998;28;20029;-58
2021/10/15 06:45:06;;;;;;;11.48;2.08;;;;;;;11.80;88.26;101535.31;5026529;28;20380;-56
2021/10/15 06:47:31;;;;;;;11.95;1.40;;;;;;;11.75;88.32;101539.53;5044147;28;20064;-53
2021/10/15 06:49:57;;;;;;;7.93;1.60;;;;;;;11.72;88.59;101546.13;5066172;28;20020;-53
2021/10/15 06:52:23;;;;;;;22.25;2.00;;;;;;;11.66;88.80;101552.19;5053690;28;20108;-52
2021/10/15 06:54:48;;;;;;;13.18;1.63;;;;;;;11.61;88.40;101560.81;5071322;28;20475;-52
2021/10/15 06:57:14;;;;;;;13.35;1.60;;;;;;;11.63;88.41;101557.91;5071653;28;20040;-49
2021/10/15 06:59:39;;;;;;;10.57;1.48;;;;;;;11.65;88.93;101548.63;5071273;28;20048;-47
2021/10/15 07:02:05;;;;;;;14.93;1.77;;;;;;;11.68;88.34;101557.41;5071986;28;20024;-49
2021/10/15 07:04:30;;;;;;;13.90;1.90;;;;;;;11.67;88.55;101570.06;5057100;28;20453;-49
2021/10/15 07:06:55;;;;;;;18.17;2.35;;;;;;;11.63;88.42;101574.94;5075022;28;20032;-49
2021/10/15 07:09:21;;;;;;;20.15;2.22;;;;;;;11.65;87.15;101567.50;5074955;28;20084;-48
2021/10/15 07:11:47;;;;;;;19.20;2.50;;;;;;;11.61;87.03;101576.97;5069485;28;20039;-51
2021/10/15 07:14:16;;;;;;;21.15;2.17;;;;;;;11.65;88.24;101572.91;5067693;28;20024;-48
2021/10/15 07:16:41;;;;;;;22.92;2.47;;;;;;;11.67;87.48;101582.69;5075071;28;20386;-46
2021/10/15 07:19:07;;;;;;;19.30;2.50;;;;;;;11.66;87.03;101584.53;5059728;28;20020;-50
2021/10/15 07:21:32;;;;;;;21.67;2.63;;;;;;;11.65;86.88;101591.78;5073544;28;20495;-48
2021/10/15 07:23:58;;;;;;;16.50;1.98;;;;;;;11.63;86.65;101583.00;5075007;28;20032;-50
2021/10/15 07:26:23;;;;;;;20.48;1.90;;;;;;;11.64;85.16;101595.50;5074863;28;20191;-48
2021/10/15 07:28:49;;;;;;;19.95;2.55;;;;;;;11.64;84.51;101595.50;5075266;28;20028;-51
2021/10/15 07:31:14;;;;;;;12.18;1.67;;;;;;;11.63;84.86;101592.97;5057329;28;20021;-49
2021/10/15 07:33:40;;;;;;;14.73;1.77;;;;;;;11.71;85.65;101602.91;5052680;28;20068;-50
2021/10/15 07:36:05;;;;;;;19.42;1.77;;;;;;;11.76;85.58;101605.94;5048046;28;20103;-47
2021/10/15 07:38:30;;;;;;;20.20;2.03;;;;;;;11.77;84.96;101610.28;5047686;28;20021;-47
2021/10/15 07:40:56;;;;;;;18.48;1.80;;;;;;;11.77;84.11;101613.00;5054244;28;20059;-49
2021/10/15 07:43:21;;;;;;;14.18;2.47;;;;;;;11.78;83.80;101618.22;5044423;28;20037;-48
2021/10/15 07:45:46;;;;;;;12.23;2.05;;;;;;;11.77;84.12;101624.66;5035103;28;20029;-47
2021/10/15 07:48:12;;;;;;;8.73;1.83;;;;;;;11.76;84.13;101639.13;5035607;28;20108;-50
2021/10/15 07:50:37;;;;;;;23.50;2.80;;;;;;;11.79;84.30;101640.63;5034399;28;20468;-47
2021/10/15 07:53:03;;;;;;;18.02;2.50;;;;;;;11.85;85.67;101642.69;5034047;28;20485;-47
2021/10/15 07:55:28;;;;;;;18.83;2.17;;;;;;;11.91;84.44;101644.72;5034483;28;20032;-46
2021/10/15 07:57:54;;;;;;;14.52;1.85;;;;;;;11.99;84.08;101644.69;5034190;28;20112;-49
2021/10/15 08:00:20;;;;;;;11.77;1.85;;;;;;;12.12;82.19;101652.25;5034244;28;20104;-49
2021/10/15 08:02:45;;;;;;;20.80;1.92;;;;;;;12.18;81.70;101648.03;5037872;28;20043;-47
2021/10/15 08:05:16;;;;;;;21.95;4.15;;;;;;;12.27;81.87;101653.25;5052700;28;20029;-46
2021/10/15 08:07:41;;;;;;;11.65;1.63;;;;;;;12.34;78.91;101645.28;5054068;28;20029;-45
2021/10/15 08:10:07;;;;;;;14.70;2.30;;;;;;;12.45;79.00;101654.84;5054120;28;20035;-47
2021/10/15 08:12:33;;;;;;;12.02;1.63;;;;;;;12.90;78.38;101654.16;5054158;28;20025;-49
2021/10/15 08:14:58;;;;;;;16.25;1.92;;;;;;;13.21;78.40;101655.97;5054200;28;20032;-47
2021/10/15 08:17:23;;;;;;;9.15;1.88;;;;;;;13.57;76.25;101660.81;5054148;28;20104;-48
2021/10/15 08:19:49;;;;;;;16.55;2.35;;;;;;;13.93;74.51;101665.56;5052776;28;20029;-50
2021/10/15 08:22:15;;;;;;;11.75;2.13;;;;;;;14.16;73.83;101669.03;5054068;28;20029;-48
2021/10/15 08:24:40;;;;;;;16.98;1.83;;;;;;;14.02;75.56;101681.53;5053809;28;20416;-49
2021/10/15 08:27:06;;;;;;;14.65;2.42;;;;;;;13.83;72.57;101688.31;5054084;28;20047;-47
2021/10/15 08:29:37;;;;;;;19.63;2.53;;;;;;;13.79;74.07;101689.69;5053792;28;20021;-49
2021/10/15 08:32:03;;;;;;;11.73;1.50;;;;;;;13.70;73.40;101693.50;5053805;28;20028;-49
2021/10/15 08:34:28;;;;;;;15.50;2.22;;;;;;;13.63;73.42;101697.94;5053720;28;20087;-47
2021/10/15 08:36:53;;;;;;;15.65;2.25;;;;;;;13.42;74.48;101703.19;5053523;28;20096;-49
2021/10/15 08:39:22;;;;;;;13.02;2.22;;;;;;;13.36;75.40;101702.03;5053622;28;20029;-48
2021/10/15 08:41:47;;;;;;;18.13;2.28;;;;;;;13.29;75.13;101707.31;5053852;28;20090;-47
2021/10/15 08:44:12;;;;;;;14.27;2.45;;;;;;;13.26;74.65;101712.22;5052166;28;20025;-50
2021/10/15 08:46:38;;;;;;;15.63;2.65;;;;;;;13.37;75.34;101715.38;5052067;28;20074;-49
2021/10/15 08:49:03;;;;;;;25.05;3.17;;;;;;;13.42;71.62;101714.00;5051976;28;20113;-47
2021/10/15 08:51:30;;;;;;;10.85;1.73;;;;;;;13.58;70.78;101716.59;5053285;28;20052;-49
2021/10/15 08:53:58;;;;;;;7.07;1.58;;;;;;;13.78;66.55;101733.19;5053275;28;20057;-50
2021/10/15 08:56:27;;;;;;;12.73;1.83;;;;;;;13.75;68.06;101731.69;5053407;28;20024;-48
2021/10/15 08:59:01;;;;;;;15.80;1.92;;;;;;;13.64;68.09;101737.53;5053401;28;20095;-47
2021/10/15 09:01:27;;;;;;;12.88;1.98;;;;;;;13.64;68.25;101736.66;5053218;28;20372;-48
2021/10/15 09:04:03;;;;;;;11.00;1.65;;;;;;;13.64;65.78;101742.94;5053246;28;20021;-46
2021/10/15 09:06:39;;;;;;;12.90;1.90;;;;;;;13.71;66.14;101743.88;5053153;28;20427;-50
2021/10/15 09:09:06;;;;;;;11.05;1.65;;;;;;;14.08;64.91;101744.09;5052708;28;20029;-49
2021/10/15 09:11:45;;;;;;;9.57;2.15;;;;;;;14.62;63.47;101747.47;5053010;28;20517;-50
2021/10/15 09:14:16;;;;;;;11.52;2.00;;;;;;;15.18;59.73;101752.38;5053064;28;20104;-48
2021/10/15 09:17:00;;;;;;;13.80;1.58;;;;;;;15.54;56.74;101756.97;5052690;28;20029;-49
2021/10/15 09:19:37;;;;;;;17.70;1.73;;;;;;;16.01;55.08;101764.53;5051736;28;20025;-48
2021/10/15 09:22:14;;;;;;;6.00;1.30;;;;;;;16.54;56.74;101763.28;5052771;28;20381;-50
2021/10/15 09:24:46;;;;;;;8.55;1.40;;;;;;;17.06;53.12;101764.63;5052141;28;20033;-47
2021/10/15 09:27:36;;;;;;;8.35;1.55;;;;;;;17.53;51.72;101762.91;5051131;28;20029;-48
2021/10/15 09:30:30;;;;;;;10.68;1.60;;;;;;;18.30;48.44;101771.59;5052744;28;20060;-48
2021/10/15 09:32:58;;;;;;;12.80;1.98;;;;;;;18.20;48.46;101766.59;5047835;28;20036;-49
2021/10/15 09:35:26;;;;;;;15.65;1.92;;;;;;;17.91;50.90;101765.13;5052428;28;20336;-50
2021/10/15 09:37:55;;;;;;;9.50;1.80;;;;;;;18.00;49.07;101769.31;5052284;28;20090;-47
2021/10/15 09:40:22;;;;;;;11.45;1.88;;;;;;;17.57;50.22;101775.06;5052446;28;20040;-47
2021/10/15 09:42:52;;;;;;;8.95;1.55;;;;;;;17.26;50.54;101773.72;5051483;28;20465;-47
2021/10/15 09:45:39;;;;;;;19.05;2.58;;;;;;;16.80;53.42;101785.22;5052395;28;20435;-50
2021/10/15 09:48:18;;;;;;;14.73;2.38;;;;;;;16.30;53.66;101784.44;5052662;28;20028;-50
2021/10/15 09:50:43;;;;;;;21.27;1.92;;;;;;;16.11;54.65;101785.09;5052351;28;20032;-51
2021/10/15 09:53:09;;;;;;;17.20;2.72;;;;;;;16.15;55.49;101789.94;5052392;28;20021;-47
2021/10/15 09:55:36;;;;;;;18.73;1.98;;;;;;;16.27;55.55;101782.06;5052115;28;20029;-50
2021/10/15 09:58:24;;;;;;;20.17;2.63;;;;;;;16.52;56.28;101790.63;5052017;28;20029;-49
2021/10/15 10:00:53;;;;;;;13.63;2.30;;;;;;;16.59;54.56;101801.56;5051061;28;20025;-48
2021/10/15 10:03:21;;;;;;;15.23;1.77;;;;;;;16.33;54.63;101805.75;5052273;28;20533;-48
2021/10/15 10:05:46;;;;;;;25.15;3.35;;;;;;;16.27;55.80;101806.53;5052165;28;20033;-49
2021/10/15 10:08:15;;;;;;;17.15;2.63;;;;;;;16.14;55.58;101807.28;5052154;28;20032;-50
2021/10/15 10:10:41;;;;;;;17.75;2.90;;;;;;;15.91;58.06;101807.47;5051959;28;20029;-49
2021/10/15 10:13:08;;;;;;;13.18;1.90;;;;;;;16.04;54.62;101809.47;5052027;28;20024;-50
2021/10/15 10:15:36;;;;;;;10.10;1.88;;;;;;;15.84;55.75;101813.88;5052163;28;20056;-50
2021/10/15 10:18:11;;;;;;;16.30;2.28;;;;;;;15.80;53.75;101816.97;5052110;28;20128;-47
2021/10/15 10:20:38;;;;;;;11.25;1.75;;;;;;;15.96;53.24;101807.72;5052612;28;20452;-47
2021/10/15 10:23:11;;;;;;;11.65;1.58;;;;;;;16.12;53.47;101813.94;5050895;28;20450;-47
2021/10/15 10:25:37;;;;;;;11.98;1.83;;;;;;;16.28;53.36;101810.94;5050870;28;20029;-50
2021/10/15 10:28:22;;;;;;;9.75;1.55;;;;;;;16.43;54.24;101821.72;5052076;28;20052;-49
2021/10/15 10:30:53;;;;;;;8.63;1.85;;;;;;;16.19;54.96;101820.25;5052013;28;20068;-51
2021/10/15 10:33:23;;;;;;;11.75;2.60;;;;;;;15.86;56.70;101830.81;5051840;28;20055;-48
2021/10/15 10:35:49;;;;;;;15.00;2.10;;;;;;;15.70;56.67;101818.31;5053154;28;20036;-47
2021/10/15 10:38:25;;;;;;;13.73;2.20;;;;;;;15.59;57.83;101816.91;5055996;28;20017;-48
2021/10/15 10:40:59;;;;;;;17.60;2.25;;;;;;;15.62;55.83;101826.53;5055777;28;20048;-48
2021/10/15 10:43:28;;;;;;;8.52;1.90;;;;;;;15.86;55.52;101834.34;5055611;28;20028;-47
2021/10/15 10:46:10;;;;;;;18.15;2.75;;;;;;;15.85;56.68;101834.53;5055654;28;20037;-50
2021/10/15 10:48:50;;;;;;;19.98;3.03;;;;;;;15.84;54.21;101836.41;5055570;28;20487;-51
2021/10/15 10:51:16;;;;;;;13.75;2.00;;;;;;;15.69;55.19;101841.03;5055435;28;20033;-47
2021/10/15 10:54:08;;;;;;;16.45;2.08;;;;;;;15.68;54.71;101844.78;5055352;28;20028;-47
2021/10/15 10:56:39;;;;;;;11.95;1.77;;;;;;;15.57;54.64;101849.66;5046958;28;20041;-50
2021/10/15 10:59:17;;;;;;;14.23;1.63;;;;;;;15.74;53.77;101850.28;5055297;28;20472;-50
2021/10/15 11:01:47;;;;;;;13.45;2.00;;;;;;;15.76;53.24;101847.41;5055056;28;20029;-48
2021/10/15 11:04:24;;;;;;;10.88;2.03;;;;;;;15.79;53.32;101852.44;5055508;28;20512;-48
2021/10/15 11:06:57;;;;;;;14.15;2.28;;;;;;;15.82;54.69;101862.91;5055302;28;20029;-50
2021/10/15 11:09:36;;;;;;;13.15;2.40;;;;;;;15.89;53.11;101863.81;5054138;28;20025;-48
2021/10/15 11:12:02;;;;;;;18.05;2.00;;;;;;;15.96;52.40;101869.34;5055217;28;20036;-50
2021/10/15 11:14:47;;;;;;;5.93;1.35;;;;;;;16.00;51.88;101876.88;5055230;28;20021;-46
2021/10/15 11:17:12;;;;;;;12.77;2.53;;;;;;;15.91;53.12;101869.91;5053916;28;20021;-47
2021/10/15 11:19:38;;;;;;;14.18;1.50;;;;;;;15.81;52.56;101880.22;5054925;28;20029;-47
2021/10/15 11:22:04;;;;;;;12.68;1.88;;;;;;;16.06;53.12;101879.88;5068398;28;20476;-47
2021/10/15 11:24:29;;;;;;;12.60;2.25;;;;;;;16.50;52.71;101881.56;5075087;28;20028;-46
2021/10/15 11:26:55;;;;;;;13.82;2.53;;;;;;;16.71;52.33;101895.09;5070925;28;20036;-47
2021/10/15 11:29:21;;;;;;;13.10;2.20;;;;;;;16.42;51.50;101894.22;5073268;28;20497;-48
2021/10/15 11:31:54;;;;;;;14.65;2.80;;;;;;;16.01;51.21;101900.31;5074604;28;20089;-46